עמוד ראשי
METAR-TAF:

METAR-TAF

שדות תעופה :

Yakutat, אלסקה, ארצות הברית

קו רוחב: 59-31N, קו אורך: 139-40W, גובה: 11מטר

תצפית מזג אוויר נוכחית

הדו"ח נערך לפני 32דקות, בשעה 19:53 UTC
רוח 3קשר מכיוון מערב
טמפרטורת 12 צלסיוס
לחות 82%
לחץ 1019 hPa
ראות: 16.1קילומטר
מעונן בגובה 1300רגל

METAR: PAYA 171953Z AUTO 28003KT 10SM OVC013 12/09 A3010 RMK AO2 SLP192 T01220089 TSNO $

זמן: 12:25 (20:25 UTC)

תחזית

הדו"ח נערך לפני 1 שעות ו 27דקות, בשעה 18:58 UTC
תחזית בתוקף מ 17 ב 19 UTC עד 18 ב 18 UTC
רוח 5קשר מכיוון מערב
ראות: 10קילומטר
מעונן בגובה 1100רגל
מ 17 ב 2200UTC
רוח 8קשר מכיוון מערב
ראות: 10קילומטר
מעונן בגובה 1500רגל
מ 18 ב 0400UTC
רוח 7קשר מכיוון מערב
ראות: 10קילומטר
מעונן בגובה 700רגל

TAF: PAYA 171858Z 1719/1818 26005KT P6SM OVC011 FM172200 26008KT P6SM OVC015 FM180400 26007KT P6SM OVC007 AMD LTD TO CLD VIS AND WIND

תצפיות ותחזיות מזג אוויר לגבי יותר מ- 4,000 שדות תעופה ברחבי העולם. דוחות METAR ו- TAF.

התחנות הזמינות מסומנות בנקודות צהובות ואדומות על גבי המפה.

העבר את העכבר לנקודה הצבעונית על מנת לראות את שם התחנה.

לאחר מכן, לחץ כדי לראות את תוכן ואת תחזיות מזג האוויר.

כדי לשנות את המפה: לחץ על הכפתורים הירוקים עם הפלוס השחור כדי להתקרב; על הכפתור הירוק עם המקף כדי להתרחק; או בחיצים הירוקים למפות סמוכות.


METAR-TAF: